createdAt,value
2018-03-02T00:05:14.595Z,18.50
2018-03-02T00:10:42.762Z,17.30
2018-03-02T00:16:11.692Z,19.57
2018-03-02T00:21:39.863Z,21.40
2018-03-02T00:27:08.053Z,18.50
2018-03-02T00:32:37.002Z,17.57
2018-03-02T00:38:05.173Z,18.93
2018-03-02T00:43:33.340Z,17.63
2018-03-02T00:49:01.496Z,19.37
2018-03-02T00:54:29.668Z,18.20
2018-03-02T00:59:58.603Z,18.07
2018-03-02T01:05:27.528Z,22.50
2018-03-02T01:10:56.480Z,18.90
2018-03-02T01:16:25.418Z,20.70
2018-03-02T01:21:54.357Z,18.80
2018-03-02T01:27:22.758Z,19.20
2018-03-02T01:32:50.941Z,20.53
2018-03-02T01:38:19.132Z,18.97
2018-03-02T01:43:48.242Z,19.70
2018-03-02T01:49:16.612Z,17.00
2018-03-02T01:54:44.756Z,18.83
2018-03-02T02:00:13.950Z,20.67
2018-03-02T02:05:42.884Z,20.87
2018-03-02T02:11:12.739Z,17.87
2018-03-02T02:16:41.660Z,21.00
2018-03-02T02:22:09.850Z,21.37
2018-03-02T02:27:38.013Z,19.17
2018-03-02T02:33:06.933Z,20.80
2018-03-02T02:38:35.120Z,15.77
2018-03-02T02:44:03.270Z,19.70
2018-03-02T02:49:31.433Z,21.33
2018-03-02T02:55:00.388Z,17.00
2018-03-02T03:00:28.542Z,20.67
2018-03-02T03:05:56.696Z,17.07
2018-03-02T03:11:24.921Z,17.20
2018-03-02T03:16:53.885Z,19.87
2018-03-02T03:22:22.046Z,20.40
2018-03-02T03:27:51.241Z,19.20
2018-03-02T03:33:19.420Z,19.17
2018-03-02T03:38:47.583Z,22.47
2018-03-02T03:44:15.749Z,19.77
2018-03-02T03:49:43.898Z,21.70
2018-03-02T03:55:12.826Z,19.53
2018-03-02T04:00:41.003Z,20.67
2018-03-02T04:06:09.139Z,19.20
2018-03-02T04:11:37.302Z,21.00
2018-03-02T04:17:06.221Z,20.30
2018-03-02T04:22:34.396Z,18.63
2018-03-02T04:28:02.552Z,21.83
2018-03-02T04:33:30.700Z,21.50
2018-03-02T04:38:59.679Z,21.47
2018-03-02T04:44:27.860Z,16.57
2018-03-02T04:49:56.855Z,22.20
2018-03-02T04:55:25.043Z,20.00
2018-03-02T05:00:54.218Z,19.67
2018-03-02T05:06:22.410Z,25.40
2018-03-02T05:11:50.630Z,22.10
2018-03-02T05:17:18.815Z,23.00
2018-03-02T05:22:51.094Z,23.57
2018-03-02T05:28:19.262Z,20.53
2018-03-02T05:33:49.186Z,23.50
2018-03-02T05:39:17.339Z,22.27
2018-03-02T05:44:46.324Z,20.80
2018-03-02T05:50:14.501Z,22.10
2018-03-02T05:55:43.410Z,38.58
2018-03-02T06:01:11.580Z,24.27
2018-03-02T06:06:39.729Z,20.20
2018-03-02T06:12:07.919Z,23.10
2018-03-02T06:17:36.069Z,20.87
2018-03-02T06:23:05.042Z,24.73
2018-03-02T06:28:33.193Z,21.43
2018-03-02T06:34:01.348Z,19.93
2018-03-02T06:39:29.490Z,19.90
2018-03-02T06:44:57.656Z,20.20
2018-03-02T06:50:25.935Z,23.10
2018-03-02T06:55:54.144Z,21.03
2018-03-02T07:01:22.298Z,17.70
2018-03-02T07:06:50.493Z,23.50
2018-03-02T07:12:18.641Z,20.60
2018-03-02T07:17:47.565Z,23.00
2018-03-02T07:23:15.740Z,20.30
2018-03-02T07:28:43.976Z,22.00
2018-03-02T07:34:12.135Z,24.70
2018-03-02T07:39:41.058Z,25.70
2018-03-02T07:45:09.206Z,21.97
2018-03-02T07:50:37.355Z,20.00
2018-03-02T07:56:05.512Z,24.47
2018-03-02T08:01:33.659Z,24.97
2018-03-02T08:07:02.635Z,24.37
2018-03-02T08:12:30.830Z,28.40
2018-03-02T08:17:58.973Z,24.90
2018-03-02T08:23:27.121Z,25.23
2018-03-02T08:28:55.319Z,24.03
2018-03-02T08:34:24.439Z,22.43
2018-03-02T08:39:52.617Z,25.50
2018-03-02T08:45:20.813Z,26.20
2018-03-02T08:50:50.377Z,26.03
2018-03-02T08:56:18.553Z,23.60
2018-03-02T09:01:46.747Z,24.27
2018-03-02T09:07:15.673Z,21.17
2018-03-02T09:12:43.839Z,24.13
2018-03-02T09:18:11.990Z,26.30
2018-03-02T09:23:41.081Z,24.30
2018-03-02T09:29:10.006Z,26.47
2018-03-02T09:34:38.925Z,27.60
2018-03-02T09:40:07.090Z,27.13
2018-03-02T09:45:35.256Z,26.77
2018-03-02T09:51:03.431Z,25.20
2018-03-02T09:56:31.583Z,26.40
2018-03-02T10:01:59.741Z,25.77
2018-03-02T10:07:28.664Z,26.07
2018-03-02T10:12:57.876Z,27.93
2018-03-02T10:18:26.023Z,24.47
2018-03-02T10:23:54.186Z,24.10
2018-03-02T10:29:22.351Z,25.87
2018-03-02T10:34:50.513Z,26.27
2018-03-02T10:40:19.465Z,28.60
2018-03-02T10:45:47.657Z,25.27
2018-03-02T10:51:16.592Z,27.13
2018-03-02T10:56:44.749Z,29.87
2018-03-02T11:02:18.626Z,29.90
2018-03-02T11:07:46.791Z,28.70
2018-03-02T11:13:15.718Z,26.93
2018-03-02T11:18:43.951Z,27.30
2018-03-02T11:24:12.857Z,28.50
2018-03-02T11:29:41.024Z,26.37
2018-03-02T11:35:09.947Z,26.53
2018-03-02T11:40:38.888Z,28.40
2018-03-02T11:46:07.026Z,26.53
2018-03-02T11:51:35.191Z,26.50
2018-03-02T11:57:03.344Z,29.60
2018-03-02T12:02:32.258Z,23.90
2018-03-02T12:08:00.411Z,29.03
2018-03-02T12:13:29.324Z,28.93
2018-03-02T12:18:57.478Z,28.33
2018-03-02T12:24:25.648Z,27.40
2018-03-02T12:29:53.851Z,26.07
2018-03-02T12:35:21.993Z,27.60
2018-03-02T12:40:50.142Z,27.63
2018-03-02T12:46:19.075Z,28.90
2018-03-02T12:51:48.021Z,27.10
2018-03-02T12:57:16.992Z,26.40
2018-03-02T13:02:45.138Z,29.20
2018-03-02T13:08:13.292Z,28.57
2018-03-02T13:13:42.244Z,27.37
2018-03-02T13:19:10.444Z,24.93
2018-03-02T13:24:38.586Z,27.37
2018-03-02T13:30:06.744Z,28.40
2018-03-02T13:35:34.885Z,29.17
2018-03-02T13:41:20.899Z,28.20
2018-03-02T13:46:49.057Z,29.70
2018-03-02T13:52:17.979Z,31.10
2018-03-02T13:58:06.729Z,30.80
2018-03-02T14:03:52.900Z,30.80
2018-03-02T14:09:21.074Z,30.07
2018-03-02T14:14:49.251Z,29.73
2018-03-02T14:20:17.401Z,28.87
2018-03-02T14:25:45.539Z,27.97
2018-03-02T14:31:14.460Z,29.37
2018-03-02T14:36:42.624Z,28.77
2018-03-02T14:42:10.889Z,28.97
2018-03-02T14:47:39.150Z,31.00
2018-03-02T14:53:07.319Z,29.03
2018-03-02T14:58:35.495Z,27.90
2018-03-02T15:04:03.660Z,27.07
2018-03-02T15:09:31.824Z,28.60
2018-03-02T15:15:00.761Z,29.10
2018-03-02T15:20:29.743Z,30.10
2018-03-02T15:25:57.919Z,27.77
2018-03-02T15:31:26.855Z,28.93
2018-03-02T15:36:55.783Z,29.03
2018-03-02T15:42:23.983Z,28.83
2018-03-02T15:47:52.165Z,29.10
2018-03-02T15:53:20.433Z,29.97
2018-03-02T15:58:48.629Z,30.20
2018-03-02T16:04:16.808Z,29.70
2018-03-02T16:09:44.996Z,29.60
2018-03-02T16:15:14.165Z,29.20
2018-03-02T16:20:42.332Z,29.43
2018-03-02T16:26:11.484Z,30.30
2018-03-02T16:31:39.638Z,29.33
2018-03-02T16:37:08.563Z,29.57
2018-03-02T16:42:36.716Z,27.40
2018-03-02T16:48:04.862Z,24.30
2018-03-02T16:53:33.088Z,26.37
2018-03-02T16:59:01.235Z,30.80
2018-03-02T17:04:29.540Z,29.70
2018-03-02T17:09:58.129Z,27.87
2018-03-02T17:15:26.306Z,31.10
2018-03-02T17:20:54.517Z,29.27
2018-03-02T17:26:22.692Z,28.57
2018-03-02T17:31:50.892Z,32.53
2018-03-02T17:37:19.871Z,33.90
2018-03-02T17:42:48.059Z,36.90
2018-03-02T17:48:17.005Z,33.47
2018-03-02T17:53:45.142Z,32.20
2018-03-02T17:59:13.316Z,30.70
2018-03-02T18:04:41.454Z,32.60
2018-03-02T18:10:11.302Z,34.90
2018-03-02T18:15:40.228Z,31.20
2018-03-02T18:21:08.398Z,34.97
2018-03-02T18:26:36.560Z,32.80
2018-03-02T18:32:04.912Z,35.97
2018-03-02T18:37:34.005Z,36.67
2018-03-02T18:43:02.581Z,35.30
2018-03-02T18:48:31.634Z,38.47
2018-03-02T18:54:01.168Z,38.87
2018-03-02T18:59:29.664Z,35.50
2018-03-02T19:04:58.002Z,38.13
2018-03-02T19:10:26.204Z,41.20
2018-03-02T19:15:54.542Z,37.47
2018-03-02T19:21:24.712Z,39.97
2018-03-02T19:26:53.131Z,41.60
2018-03-02T19:32:21.350Z,42.10
2018-03-02T19:37:49.703Z,42.50
2018-03-02T19:43:18.791Z,38.47
2018-03-02T19:48:46.979Z,44.10
2018-03-02T19:54:15.937Z,43.20
2018-03-02T19:59:44.152Z,37.73
2018-03-02T20:05:15.728Z,39.10
2018-03-02T20:10:45.063Z,41.73
2018-03-02T20:16:13.323Z,38.10
2018-03-02T20:21:53.313Z,38.07
2018-03-02T20:27:21.976Z,38.27
2018-03-02T20:32:50.171Z,36.93
2018-03-02T20:38:19.130Z,37.37
2018-03-02T20:43:47.328Z,40.70
2018-03-02T20:49:16.355Z,40.70
2018-03-02T20:54:44.526Z,40.37
2018-03-02T21:00:12.701Z,42.33
2018-03-02T21:05:40.858Z,37.60
2018-03-02T21:11:09.798Z,41.37
2018-03-02T21:16:38.772Z,44.90
2018-03-02T21:22:12.198Z,42.77
2018-03-02T21:27:48.771Z,45.67
2018-03-02T21:33:17.083Z,43.07
2018-03-02T21:38:45.248Z,43.80
2018-03-02T21:44:14.363Z,46.77
2018-03-02T21:49:42.547Z,48.10
2018-03-02T21:55:10.983Z,48.00
2018-03-02T22:00:39.138Z,44.63
2018-03-02T22:06:07.323Z,46.47
2018-03-02T22:11:35.554Z,44.67
2018-03-02T22:17:03.772Z,45.10
2018-03-02T22:22:31.888Z,43.20
2018-03-02T22:28:00.392Z,43.20
2018-03-02T22:33:28.810Z,41.63
2018-03-02T22:38:57.760Z,41.40
2018-03-02T22:44:25.999Z,41.17
2018-03-02T22:49:54.170Z,44.03
2018-03-02T22:55:23.139Z,44.10
2018-03-02T23:00:51.327Z,50.45
2018-03-02T23:06:20.280Z,43.87
2018-03-02T23:11:48.466Z,40.47
2018-03-02T23:17:16.619Z,39.37
2018-03-02T23:22:45.561Z,38.53
2018-03-02T23:28:13.724Z,40.90
2018-03-02T23:33:42.010Z,40.93
2018-03-02T23:39:10.166Z,42.30
2018-03-02T23:44:38.322Z,39.20
2018-03-02T23:50:07.238Z,44.40
2018-03-02T23:55:35.398Z,42.77
